sensor_id;sensor_type;location;lat;lon;timestamp;P1;durP1;ratioP1;P2;durP2;ratioP2
41923;SDS011;27613;48.116;11.656;2023-01-31T00:00:46;5.03;;;2.67;;
41923;SDS011;27613;48.116;11.656;2023-01-31T00:03:11;5.85;;;3.22;;
41923;SDS011;27613;48.116;11.656;2023-01-31T00:05:37;9.77;;;3.78;;
41923;SDS011;27613;48.116;11.656;2023-01-31T00:08:02;6.07;;;3.28;;
41923;SDS011;27613;48.116;11.656;2023-01-31T00:10:28;6.05;;;3.55;;
41923;SDS011;27613;48.116;11.656;2023-01-31T00:12:54;11.40;;;3.95;;
41923;SDS011;27613;48.116;11.656;2023-01-31T00:15:20;9.45;;;3.72;;
41923;SDS011;27613;48.116;11.656;2023-01-31T00:17:46;7.88;;;3.80;;
41923;SDS011;27613;48.116;11.656;2023-01-31T00:20:11;7.97;;;3.47;;
41923;SDS011;27613;48.116;11.656;2023-01-31T00:22:37;10.32;;;4.07;;
41923;SDS011;27613;48.116;11.656;2023-01-31T00:25:03;6.93;;;3.50;;
41923;SDS011;27613;48.116;11.656;2023-01-31T00:27:29;5.32;;;3.10;;
41923;SDS011;27613;48.116;11.656;2023-01-31T00:29:55;6.57;;;3.25;;
41923;SDS011;27613;48.116;11.656;2023-01-31T00:32:20;9.43;;;4.20;;
41923;SDS011;27613;48.116;11.656;2023-01-31T00:34:46;6.53;;;3.60;;
41923;SDS011;27613;48.116;11.656;2023-01-31T00:37:11;6.80;;;3.30;;
41923;SDS011;27613;48.116;11.656;2023-01-31T00:39:37;4.80;;;3.25;;
41923;SDS011;27613;48.116;11.656;2023-01-31T00:42:02;6.35;;;3.17;;
41923;SDS011;27613;48.116;11.656;2023-01-31T00:44:28;6.63;;;4.00;;
41923;SDS011;27613;48.116;11.656;2023-01-31T00:46:53;7.90;;;3.92;;
41923;SDS011;27613;48.116;11.656;2023-01-31T00:49:19;11.95;;;3.95;;
41923;SDS011;27613;48.116;11.656;2023-01-31T00:51:44;5.93;;;3.30;;
41923;SDS011;27613;48.116;11.656;2023-01-31T00:54:10;9.82;;;3.78;;
41923;SDS011;27613;48.116;11.656;2023-01-31T00:56:35;6.10;;;3.65;;
41923;SDS011;27613;48.116;11.656;2023-01-31T00:59:02;10.07;;;4.00;;
41923;SDS011;27613;48.116;11.656;2023-01-31T01:01:32;5.55;;;3.30;;
41923;SDS011;27613;48.116;11.656;2023-01-31T01:03:59;7.57;;;3.90;;
41923;SDS011;27613;48.116;11.656;2023-01-31T01:06:26;6.80;;;3.65;;
41923;SDS011;27613;48.116;11.656;2023-01-31T01:08:52;8.23;;;3.83;;
41923;SDS011;27613;48.116;11.656;2023-01-31T01:11:23;6.30;;;3.80;;
41923;SDS011;27613;48.116;11.656;2023-01-31T01:13:59;6.45;;;4.00;;
41923;SDS011;27613;48.116;11.656;2023-01-31T01:16:26;8.38;;;3.78;;
41923;SDS011;27613;48.116;11.656;2023-01-31T01:18:55;6.00;;;3.53;;
41923;SDS011;27613;48.116;11.656;2023-01-31T01:21:22;7.40;;;4.15;;
41923;SDS011;27613;48.116;11.656;2023-01-31T01:23:52;6.93;;;4.05;;
41923;SDS011;27613;48.116;11.656;2023-01-31T01:26:22;6.85;;;4.07;;
41923;SDS011;27613;48.116;11.656;2023-01-31T01:28:49;8.50;;;3.72;;
41923;SDS011;27613;48.116;11.656;2023-01-31T01:31:16;11.65;;;4.85;;
41923;SDS011;27613;48.116;11.656;2023-01-31T01:33:42;10.82;;;4.25;;
41923;SDS011;27613;48.116;11.656;2023-01-31T01:36:09;7.30;;;3.85;;
41923;SDS011;27613;48.116;11.656;2023-01-31T01:38:40;5.95;;;4.07;;
41923;SDS011;27613;48.116;11.656;2023-01-31T01:41:05;7.63;;;3.92;;
41923;SDS011;27613;48.116;11.656;2023-01-31T01:43:38;6.57;;;3.83;;
41923;SDS011;27613;48.116;11.656;2023-01-31T01:46:04;7.68;;;4.75;;
41923;SDS011;27613;48.116;11.656;2023-01-31T01:48:30;8.57;;;4.13;;
41923;SDS011;27613;48.116;11.656;2023-01-31T01:50:55;8.50;;;4.03;;
41923;SDS011;27613;48.116;11.656;2023-01-31T01:53:22;6.70;;;4.40;;
41923;SDS011;27613;48.116;11.656;2023-01-31T01:55:56;6.70;;;4.13;;
41923;SDS011;27613;48.116;11.656;2023-01-31T01:58:26;6.95;;;4.00;;
41923;SDS011;27613;48.116;11.656;2023-01-31T02:01:00;7.93;;;4.15;;
41923;SDS011;27613;48.116;11.656;2023-01-31T02:03:28;9.63;;;4.55;;
41923;SDS011;27613;48.116;11.656;2023-01-31T02:05:55;9.48;;;4.22;;
41923;SDS011;27613;48.116;11.656;2023-01-31T02:08:26;7.50;;;3.97;;
41923;SDS011;27613;48.116;11.656;2023-01-31T02:10:59;8.00;;;4.25;;
41923;SDS011;27613;48.116;11.656;2023-01-31T02:13:26;6.18;;;3.92;;
41923;SDS011;27613;48.116;11.656;2023-01-31T02:15:52;8.65;;;4.22;;
41923;SDS011;27613;48.116;11.656;2023-01-31T02:18:18;9.95;;;4.40;;
41923;SDS011;27613;48.116;11.656;2023-01-31T02:38:03;9.85;;;3.90;;
41923;SDS011;27613;48.116;11.656;2023-01-31T02:40:41;5.78;;;3.92;;
41923;SDS011;27613;48.116;11.656;2023-01-31T02:43:35;4.70;;;3.38;;
41923;SDS011;27613;48.116;11.656;2023-01-31T02:46:41;7.10;;;3.80;;
41923;SDS011;27613;48.116;11.656;2023-01-31T02:49:40;9.15;;;4.25;;
41923;SDS011;27613;48.116;11.656;2023-01-31T02:55:07;6.95;;;4.00;;
41923;SDS011;27613;48.116;11.656;2023-01-31T02:57:57;9.85;;;4.13;;
41923;SDS011;27613;48.116;11.656;2023-01-31T03:00:25;6.38;;;3.50;;
41923;SDS011;27613;48.116;11.656;2023-01-31T03:02:53;6.55;;;3.42;;
41923;SDS011;27613;48.116;11.656;2023-01-31T03:05:20;11.15;;;3.40;;
41923;SDS011;27613;48.116;11.656;2023-01-31T03:07:47;8.80;;;4.18;;
41923;SDS011;27613;48.116;11.656;2023-01-31T03:10:26;6.85;;;3.85;;
41923;SDS011;27613;48.116;11.656;2023-01-31T03:13:21;7.15;;;3.70;;
41923;SDS011;27613;48.116;11.656;2023-01-31T03:16:05;10.85;;;4.25;;
41923;SDS011;27613;48.116;11.656;2023-01-31T03:19:20;6.53;;;3.90;;
41923;SDS011;27613;48.116;11.656;2023-01-31T03:21:52;13.02;;;3.70;;
41923;SDS011;27613;48.116;11.656;2023-01-31T03:24:21;8.23;;;3.92;;
41923;SDS011;27613;48.116;11.656;2023-01-31T03:26:50;6.78;;;3.50;;
41923;SDS011;27613;48.116;11.656;2023-01-31T03:29:17;9.23;;;3.83;;
41923;SDS011;27613;48.116;11.656;2023-01-31T03:31:48;7.88;;;3.88;;
41923;SDS011;27613;48.116;11.656;2023-01-31T03:34:24;6.53;;;3.60;;
41923;SDS011;27613;48.116;11.656;2023-01-31T03:36:52;6.82;;;3.35;;
41923;SDS011;27613;48.116;11.656;2023-01-31T03:41:57;5.68;;;3.40;;
41923;SDS011;27613;48.116;11.656;2023-01-31T03:47:25;9.55;;;4.03;;
41923;SDS011;27613;48.116;11.656;2023-01-31T03:50:11;8.73;;;3.55;;
41923;SDS011;27613;48.116;11.656;2023-01-31T03:52:51;11.48;;;3.70;;
41923;SDS011;27613;48.116;11.656;2023-01-31T03:55:24;7.20;;;3.63;;
41923;SDS011;27613;48.116;11.656;2023-01-31T03:57:55;7.57;;;3.75;;
41923;SDS011;27613;48.116;11.656;2023-01-31T04:00:23;7.28;;;3.75;;
41923;SDS011;27613;48.116;11.656;2023-01-31T04:02:53;14.70;;;4.30;;
41923;SDS011;27613;48.116;11.656;2023-01-31T04:05:25;8.25;;;4.00;;
41923;SDS011;27613;48.116;11.656;2023-01-31T04:07:55;13.23;;;4.43;;
41923;SDS011;27613;48.116;11.656;2023-01-31T04:10:22;7.20;;;3.92;;
41923;SDS011;27613;48.116;11.656;2023-01-31T04:12:49;7.07;;;3.78;;
41923;SDS011;27613;48.116;11.656;2023-01-31T04:15:14;9.10;;;3.72;;
41923;SDS011;27613;48.116;11.656;2023-01-31T04:17:40;9.43;;;4.25;;
41923;SDS011;27613;48.116;11.656;2023-01-31T04:20:06;6.53;;;3.60;;
41923;SDS011;27613;48.116;11.656;2023-01-31T04:22:32;8.52;;;3.75;;
41923;SDS011;27613;48.116;11.656;2023-01-31T04:24:57;10.25;;;3.63;;
41923;SDS011;27613;48.116;11.656;2023-01-31T04:27:23;6.95;;;3.42;;
41923;SDS011;27613;48.116;11.656;2023-01-31T04:29:48;5.68;;;3.45;;
41923;SDS011;27613;48.116;11.656;2023-01-31T04:32:14;7.07;;;3.63;;
41923;SDS011;27613;48.116;11.656;2023-01-31T04:34:39;14.23;;;4.97;;
41923;SDS011;27613;48.116;11.656;2023-01-31T04:37:05;9.32;;;3.70;;
41923;SDS011;27613;48.116;11.656;2023-01-31T04:39:30;10.02;;;3.75;;
41923;SDS011;27613;48.116;11.656;2023-01-31T04:41:56;7.40;;;3.65;;
41923;SDS011;27613;48.116;11.656;2023-01-31T04:44:21;8.25;;;4.00;;
41923;SDS011;27613;48.116;11.656;2023-01-31T04:46:47;9.82;;;3.58;;
41923;SDS011;27613;48.116;11.656;2023-01-31T04:49:13;7.63;;;3.55;;
41923;SDS011;27613;48.116;11.656;2023-01-31T04:51:39;5.30;;;3.40;;
41923;SDS011;27613;48.116;11.656;2023-01-31T04:54:05;9.80;;;4.47;;
41923;SDS011;27613;48.116;11.656;2023-01-31T04:56:30;9.45;;;3.72;;
41923;SDS011;27613;48.116;11.656;2023-01-31T04:58:56;7.45;;;3.47;;
41923;SDS011;27613;48.116;11.656;2023-01-31T05:01:22;6.10;;;3.60;;
41923;SDS011;27613;48.116;11.656;2023-01-31T05:03:47;7.93;;;3.80;;
41923;SDS011;27613;48.116;11.656;2023-01-31T05:06:13;8.50;;;3.85;;
41923;SDS011;27613;48.116;11.656;2023-01-31T05:08:38;10.70;;;3.95;;
41923;SDS011;27613;48.116;11.656;2023-01-31T05:11:04;7.70;;;3.50;;
41923;SDS011;27613;48.116;11.656;2023-01-31T05:13:31;7.30;;;3.20;;
41923;SDS011;27613;48.116;11.656;2023-01-31T05:15:57;9.00;;;3.55;;
41923;SDS011;27613;48.116;11.656;2023-01-31T05:18:23;6.88;;;3.00;;
41923;SDS011;27613;48.116;11.656;2023-01-31T05:20:49;6.63;;;3.20;;
41923;SDS011;27613;48.116;11.656;2023-01-31T05:23:18;14.40;;;3.70;;
41923;SDS011;27613;48.116;11.656;2023-01-31T05:25:44;9.02;;;4.13;;
41923;SDS011;27613;48.116;11.656;2023-01-31T05:28:10;9.15;;;3.50;;
41923;SDS011;27613;48.116;11.656;2023-01-31T05:30:36;9.55;;;4.65;;
41923;SDS011;27613;48.116;11.656;2023-01-31T05:33:02;9.90;;;3.75;;
41923;SDS011;27613;48.116;11.656;2023-01-31T05:35:27;8.35;;;3.72;;
41923;SDS011;27613;48.116;11.656;2023-01-31T05:37:53;7.40;;;3.70;;
41923;SDS011;27613;48.116;11.656;2023-01-31T05:40:19;13.75;;;3.75;;
41923;SDS011;27613;48.116;11.656;2023-01-31T05:42:48;8.88;;;3.65;;
41923;SDS011;27613;48.116;11.656;2023-01-31T05:45:17;8.13;;;3.40;;
41923;SDS011;27613;48.116;11.656;2023-01-31T05:47:45;6.05;;;3.28;;
41923;SDS011;27613;48.116;11.656;2023-01-31T05:50:11;8.38;;;3.33;;
41923;SDS011;27613;48.116;11.656;2023-01-31T05:52:37;7.30;;;3.47;;
41923;SDS011;27613;48.116;11.656;2023-01-31T05:55:03;8.77;;;3.95;;
41923;SDS011;27613;48.116;11.656;2023-01-31T05:57:29;4.82;;;3.25;;
41923;SDS011;27613;48.116;11.656;2023-01-31T05:59:54;6.15;;;3.33;;
41923;SDS011;27613;48.116;11.656;2023-01-31T06:02:20;5.97;;;3.15;;
41923;SDS011;27613;48.116;11.656;2023-01-31T06:04:45;5.78;;;3.45;;
41923;SDS011;27613;48.116;11.656;2023-01-31T06:07:11;10.65;;;4.10;;
41923;SDS011;27613;48.116;11.656;2023-01-31T06:09:36;9.70;;;4.07;;
41923;SDS011;27613;48.116;11.656;2023-01-31T06:12:04;6.15;;;3.33;;
41923;SDS011;27613;48.116;11.656;2023-01-31T06:14:30;8.25;;;3.60;;
41923;SDS011;27613;48.116;11.656;2023-01-31T06:16:56;6.63;;;3.30;;
41923;SDS011;27613;48.116;11.656;2023-01-31T06:19:21;9.00;;;3.58;;
41923;SDS011;27613;48.116;11.656;2023-01-31T06:21:49;9.60;;;3.85;;
41923;SDS011;27613;48.116;11.656;2023-01-31T06:24:15;21.52;;;4.22;;
41923;SDS011;27613;48.116;11.656;2023-01-31T06:26:40;12.40;;;3.35;;
41923;SDS011;27613;48.116;11.656;2023-01-31T06:29:07;7.72;;;3.70;;
41923;SDS011;27613;48.116;11.656;2023-01-31T06:31:33;10.23;;;3.63;;
41923;SDS011;27613;48.116;11.656;2023-01-31T06:33:58;10.07;;;3.85;;
41923;SDS011;27613;48.116;11.656;2023-01-31T06:36:24;7.95;;;3.60;;
41923;SDS011;27613;48.116;11.656;2023-01-31T06:38:50;6.95;;;3.47;;
41923;SDS011;27613;48.116;11.656;2023-01-31T06:41:17;9.77;;;3.70;;
41923;SDS011;27613;48.116;11.656;2023-01-31T06:43:42;6.95;;;3.78;;
41923;SDS011;27613;48.116;11.656;2023-01-31T06:46:08;6.22;;;3.10;;
41923;SDS011;27613;48.116;11.656;2023-01-31T06:48:34;5.95;;;3.20;;
41923;SDS011;27613;48.116;11.656;2023-01-31T06:50:59;9.27;;;4.43;;
41923;SDS011;27613;48.116;11.656;2023-01-31T06:53:25;5.75;;;3.15;;
41923;SDS011;27613;48.116;11.656;2023-01-31T06:55:50;12.68;;;4.35;;
41923;SDS011;27613;48.116;11.656;2023-01-31T06:58:16;5.20;;;3.08;;
41923;SDS011;27613;48.116;11.656;2023-01-31T07:00:42;8.13;;;3.10;;
41923;SDS011;27613;48.116;11.656;2023-01-31T07:03:08;7.38;;;3.55;;
41923;SDS011;27613;48.116;11.656;2023-01-31T07:05:33;12.05;;;3.33;;
41923;SDS011;27613;48.116;11.656;2023-01-31T07:07:59;6.82;;;3.20;;
41923;SDS011;27613;48.116;11.656;2023-01-31T07:10:24;11.93;;;3.42;;
41923;SDS011;27613;48.116;11.656;2023-01-31T07:12:50;13.07;;;3.60;;
41923;SDS011;27613;48.116;11.656;2023-01-31T07:15:15;7.25;;;3.40;;
41923;SDS011;27613;48.116;11.656;2023-01-31T07:17:41;11.32;;;3.13;;
41923;SDS011;27613;48.116;11.656;2023-01-31T07:20:08;10.50;;;3.67;;
41923;SDS011;27613;48.116;11.656;2023-01-31T07:22:34;8.13;;;3.20;;
41923;SDS011;27613;48.116;11.656;2023-01-31T07:24:59;6.05;;;3.22;;
41923;SDS011;27613;48.116;11.656;2023-01-31T07:27:25;8.98;;;3.63;;
41923;SDS011;27613;48.116;11.656;2023-01-31T07:29:51;8.23;;;3.17;;
41923;SDS011;27613;48.116;11.656;2023-01-31T07:32:16;6.47;;;3.53;;
41923;SDS011;27613;48.116;11.656;2023-01-31T07:34:42;11.40;;;3.58;;
41923;SDS011;27613;48.116;11.656;2023-01-31T07:37:08;12.20;;;3.72;;
41923;SDS011;27613;48.116;11.656;2023-01-31T07:39:33;7.70;;;3.65;;
41923;SDS011;27613;48.116;11.656;2023-01-31T07:41:59;8.23;;;3.38;;
41923;SDS011;27613;48.116;11.656;2023-01-31T07:44:24;6.32;;;2.97;;
41923;SDS011;27613;48.116;11.656;2023-01-31T07:46:50;7.60;;;3.50;;
41923;SDS011;27613;48.116;11.656;2023-01-31T07:49:18;7.28;;;3.30;;
41923;SDS011;27613;48.116;11.656;2023-01-31T07:51:44;8.50;;;3.60;;
41923;SDS011;27613;48.116;11.656;2023-01-31T07:54:10;9.35;;;3.22;;
41923;SDS011;27613;48.116;11.656;2023-01-31T07:56:35;8.15;;;3.28;;
41923;SDS011;27613;48.116;11.656;2023-01-31T07:59:01;5.18;;;2.60;;
41923;SDS011;27613;48.116;11.656;2023-01-31T08:01:27;10.30;;;3.10;;
41923;SDS011;27613;48.116;11.656;2023-01-31T08:04:12;8.90;;;2.85;;
41923;SDS011;27613;48.116;11.656;2023-01-31T08:06:40;6.22;;;2.88;;
41923;SDS011;27613;48.116;11.656;2023-01-31T08:09:07;5.70;;;2.83;;
41923;SDS011;27613;48.116;11.656;2023-01-31T08:11:32;6.30;;;2.83;;
41923;SDS011;27613;48.116;11.656;2023-01-31T08:13:58;8.77;;;3.00;;
41923;SDS011;27613;48.116;11.656;2023-01-31T08:16:23;8.02;;;3.05;;
41923;SDS011;27613;48.116;11.656;2023-01-31T08:18:50;5.40;;;2.60;;
41923;SDS011;27613;48.116;11.656;2023-01-31T08:21:16;7.93;;;3.17;;
41923;SDS011;27613;48.116;11.656;2023-01-31T08:23:43;8.80;;;2.80;;
41923;SDS011;27613;48.116;11.656;2023-01-31T08:26:13;8.45;;;3.35;;
41923;SDS011;27613;48.116;11.656;2023-01-31T08:28:44;8.20;;;3.30;;
41923;SDS011;27613;48.116;11.656;2023-01-31T08:31:11;7.80;;;2.90;;
41923;SDS011;27613;48.116;11.656;2023-01-31T08:33:38;9.85;;;3.00;;
41923;SDS011;27613;48.116;11.656;2023-01-31T08:36:11;6.90;;;2.90;;
41923;SDS011;27613;48.116;11.656;2023-01-31T08:38:42;5.28;;;2.63;;
41923;SDS011;27613;48.116;11.656;2023-01-31T08:41:08;6.03;;;2.65;;
41923;SDS011;27613;48.116;11.656;2023-01-31T08:43:35;6.93;;;2.75;;
41923;SDS011;27613;48.116;11.656;2023-01-31T08:46:02;11.38;;;3.13;;
41923;SDS011;27613;48.116;11.656;2023-01-31T08:48:28;5.97;;;2.80;;
41923;SDS011;27613;48.116;11.656;2023-01-31T08:50:55;9.52;;;3.10;;
41923;SDS011;27613;48.116;11.656;2023-01-31T08:53:24;14.90;;;3.42;;
41923;SDS011;27613;48.116;11.656;2023-01-31T08:55:49;8.18;;;3.10;;
41923;SDS011;27613;48.116;11.656;2023-01-31T08:58:15;7.65;;;2.97;;
41923;SDS011;27613;48.116;11.656;2023-01-31T09:00:40;7.57;;;2.97;;
41923;SDS011;27613;48.116;11.656;2023-01-31T09:03:06;8.98;;;3.25;;
41923;SDS011;27613;48.116;11.656;2023-01-31T09:05:31;7.18;;;2.72;;
41923;SDS011;27613;48.116;11.656;2023-01-31T09:07:57;7.93;;;2.65;;
41923;SDS011;27613;48.116;11.656;2023-01-31T09:10:23;8.90;;;3.60;;
41923;SDS011;27613;48.116;11.656;2023-01-31T09:12:48;11.98;;;2.70;;
41923;SDS011;27613;48.116;11.656;2023-01-31T09:15:14;7.60;;;3.05;;
41923;SDS011;27613;48.116;11.656;2023-01-31T09:17:39;8.88;;;3.10;;
41923;SDS011;27613;48.116;11.656;2023-01-31T09:20:06;13.75;;;2.90;;
41923;SDS011;27613;48.116;11.656;2023-01-31T09:22:34;15.75;;;3.33;;
41923;SDS011;27613;48.116;11.656;2023-01-31T09:25:00;7.35;;;2.80;;
41923;SDS011;27613;48.116;11.656;2023-01-31T09:27:26;8.38;;;2.72;;
41923;SDS011;27613;48.116;11.656;2023-01-31T09:29:52;5.78;;;2.70;;
41923;SDS011;27613;48.116;11.656;2023-01-31T09:32:18;12.35;;;3.10;;
41923;SDS011;27613;48.116;11.656;2023-01-31T09:34:45;6.93;;;2.72;;
41923;SDS011;27613;48.116;11.656;2023-01-31T09:37:12;8.15;;;2.63;;
41923;SDS011;27613;48.116;11.656;2023-01-31T09:39:41;6.60;;;2.92;;
41923;SDS011;27613;48.116;11.656;2023-01-31T09:42:26;7.75;;;2.85;;
41923;SDS011;27613;48.116;11.656;2023-01-31T09:45:00;11.05;;;2.75;;
41923;SDS011;27613;48.116;11.656;2023-01-31T09:47:38;10.05;;;3.38;;
41923;SDS011;27613;48.116;11.656;2023-01-31T09:50:22;11.65;;;3.13;;
41923;SDS011;27613;48.116;11.656;2023-01-31T09:52:58;8.25;;;2.72;;
41923;SDS011;27613;48.116;11.656;2023-01-31T09:55:30;9.65;;;3.05;;
41923;SDS011;27613;48.116;11.656;2023-01-31T09:58:08;10.52;;;3.10;;
41923;SDS011;27613;48.116;11.656;2023-01-31T10:01:02;7.55;;;2.20;;
41923;SDS011;27613;48.116;11.656;2023-01-31T10:03:50;6.78;;;2.47;;
41923;SDS011;27613;48.116;11.656;2023-01-31T10:06:28;10.25;;;2.58;;
41923;SDS011;27613;48.116;11.656;2023-01-31T10:09:06;23.08;;;3.55;;
41923;SDS011;27613;48.116;11.656;2023-01-31T10:11:48;9.00;;;2.72;;
41923;SDS011;27613;48.116;11.656;2023-01-31T10:16:57;7.07;;;2.22;;
41923;SDS011;27613;48.116;11.656;2023-01-31T10:22:33;7.10;;;2.70;;
41923;SDS011;27613;48.116;11.656;2023-01-31T10:25:32;8.25;;;2.53;;
41923;SDS011;27613;48.116;11.656;2023-01-31T10:28:07;4.78;;;2.22;;
41923;SDS011;27613;48.116;11.656;2023-01-31T10:33:16;7.05;;;2.20;;
41923;SDS011;27613;48.116;11.656;2023-01-31T10:35:53;10.45;;;2.47;;
41923;SDS011;27613;48.116;11.656;2023-01-31T10:38:29;7.65;;;2.17;;
41923;SDS011;27613;48.116;11.656;2023-01-31T10:41:00;10.48;;;2.08;;
41923;SDS011;27613;48.116;11.656;2023-01-31T10:46:55;7.57;;;1.85;;
41923;SDS011;27613;48.116;11.656;2023-01-31T10:49:23;8.93;;;2.95;;
41923;SDS011;27613;48.116;11.656;2023-01-31T10:52:03;8.35;;;2.78;;
41923;SDS011;27613;48.116;11.656;2023-01-31T10:57:26;6.53;;;2.08;;
41923;SDS011;27613;48.116;11.656;2023-01-31T10:59:51;8.88;;;2.50;;
41923;SDS011;27613;48.116;11.656;2023-01-31T11:02:19;9.23;;;2.50;;
41923;SDS011;27613;48.116;11.656;2023-01-31T11:04:50;6.15;;;2.45;;
41923;SDS011;27613;48.116;11.656;2023-01-31T11:07:18;6.75;;;2.25;;
41923;SDS011;27613;48.116;11.656;2023-01-31T11:09:49;4.78;;;2.10;;
41923;SDS011;27613;48.116;11.656;2023-01-31T11:12:18;13.00;;;2.75;;
41923;SDS011;27613;48.116;11.656;2023-01-31T11:14:47;7.05;;;2.83;;
41923;SDS011;27613;48.116;11.656;2023-01-31T11:17:32;7.05;;;2.58;;
41923;SDS011;27613;48.116;11.656;2023-01-31T11:20:00;9.77;;;2.70;;
41923;SDS011;27613;48.116;11.656;2023-01-31T11:22:29;6.93;;;2.55;;
41923;SDS011;27613;48.116;11.656;2023-01-31T11:24:56;6.07;;;2.45;;
41923;SDS011;27613;48.116;11.656;2023-01-31T11:27:28;7.18;;;2.78;;
41923;SDS011;27613;48.116;11.656;2023-01-31T11:29:55;8.10;;;2.70;;
41923;SDS011;27613;48.116;11.656;2023-01-31T11:32:23;6.28;;;2.65;;
41923;SDS011;27613;48.116;11.656;2023-01-31T11:35:00;7.75;;;2.78;;
41923;SDS011;27613;48.116;11.656;2023-01-31T11:37:30;5.65;;;2.53;;
41923;SDS011;27613;48.116;11.656;2023-01-31T11:40:02;6.22;;;2.88;;
41923;SDS011;27613;48.116;11.656;2023-01-31T11:42:52;18.65;;;3.15;;
41923;SDS011;27613;48.116;11.656;2023-01-31T11:45:21;8.55;;;3.08;;
41923;SDS011;27613;48.116;11.656;2023-01-31T11:47:49;5.55;;;2.55;;
41923;SDS011;27613;48.116;11.656;2023-01-31T11:50:39;8.25;;;2.63;;
41923;SDS011;27613;48.116;11.656;2023-01-31T11:55:42;15.30;;;2.78;;
41923;SDS011;27613;48.116;11.656;2023-01-31T11:58:20;6.90;;;2.88;;
41923;SDS011;27613;48.116;11.656;2023-01-31T12:00:53;7.32;;;2.53;;
41923;SDS011;27613;48.116;11.656;2023-01-31T12:03:21;8.38;;;3.05;;
41923;SDS011;27613;48.116;11.656;2023-01-31T12:05:58;10.75;;;3.40;;
41923;SDS011;27613;48.116;11.656;2023-01-31T12:11:22;6.30;;;3.00;;
41923;SDS011;27613;48.116;11.656;2023-01-31T12:14:16;8.10;;;2.67;;
41923;SDS011;27613;48.116;11.656;2023-01-31T12:16:41;7.30;;;2.70;;
41923;SDS011;27613;48.116;11.656;2023-01-31T12:27:02;8.30;;;2.78;;
41923;SDS011;27613;48.116;11.656;2023-01-31T12:30:15;6.25;;;3.20;;
41923;SDS011;27613;48.116;11.656;2023-01-31T12:33:08;5.28;;;2.60;;
41923;SDS011;27613;48.116;11.656;2023-01-31T12:41:33;4.20;;;2.55;;
41923;SDS011;27613;48.116;11.656;2023-01-31T12:50:12;5.70;;;2.88;;
41923;SDS011;27613;48.116;11.656;2023-01-31T12:52:49;6.25;;;3.22;;
41923;SDS011;27613;48.116;11.656;2023-01-31T12:58:44;6.57;;;3.25;;
41923;SDS011;27613;48.116;11.656;2023-01-31T13:01:30;8.70;;;3.30;;
41923;SDS011;27613;48.116;11.656;2023-01-31T13:06:33;6.85;;;3.72;;
41923;SDS011;27613;48.116;11.656;2023-01-31T13:09:09;6.05;;;3.85;;
41923;SDS011;27613;48.116;11.656;2023-01-31T13:12:00;5.35;;;3.60;;
41923;SDS011;27613;48.116;11.656;2023-01-31T13:14:51;7.20;;;4.00;;
41923;SDS011;27613;48.116;11.656;2023-01-31T13:17:32;7.38;;;3.90;;
41923;SDS011;27613;48.116;11.656;2023-01-31T13:20:25;5.20;;;3.25;;
41923;SDS011;27613;48.116;11.656;2023-01-31T13:22:54;7.30;;;4.38;;
41923;SDS011;27613;48.116;11.656;2023-01-31T13:25:36;7.20;;;3.78;;
41923;SDS011;27613;48.116;11.656;2023-01-31T13:28:20;9.88;;;3.65;;
41923;SDS011;27613;48.116;11.656;2023-01-31T13:35:48;5.40;;;3.30;;
41923;SDS011;27613;48.116;11.656;2023-01-31T13:38:21;5.93;;;3.08;;
41923;SDS011;27613;48.116;11.656;2023-01-31T13:40:57;6.13;;;3.58;;
41923;SDS011;27613;48.116;11.656;2023-01-31T13:43:24;7.22;;;3.60;;
41923;SDS011;27613;48.116;11.656;2023-01-31T13:45:55;5.45;;;3.55;;
41923;SDS011;27613;48.116;11.656;2023-01-31T13:48:27;5.60;;;3.85;;
41923;SDS011;27613;48.116;11.656;2023-01-31T13:53:24;7.15;;;3.80;;
41923;SDS011;27613;48.116;11.656;2023-01-31T13:55:53;7.55;;;4.28;;
41923;SDS011;27613;48.116;11.656;2023-01-31T13:58:24;6.85;;;3.85;;
41923;SDS011;27613;48.116;11.656;2023-01-31T14:00:58;6.90;;;4.53;;
41923;SDS011;27613;48.116;11.656;2023-01-31T14:03:28;5.57;;;3.63;;
41923;SDS011;27613;48.116;11.656;2023-01-31T14:05:56;7.53;;;4.53;;
41923;SDS011;27613;48.116;11.656;2023-01-31T14:08:27;7.95;;;4.13;;
41923;SDS011;27613;48.116;11.656;2023-01-31T14:13:49;9.20;;;4.45;;
41923;SDS011;27613;48.116;11.656;2023-01-31T14:16:38;8.40;;;4.65;;
41923;SDS011;27613;48.116;11.656;2023-01-31T14:22:02;6.53;;;4.07;;
41923;SDS011;27613;48.116;11.656;2023-01-31T14:27:20;9.77;;;4.65;;
41923;SDS011;27613;48.116;11.656;2023-01-31T14:30:10;7.43;;;3.97;;
41923;SDS011;27613;48.116;11.656;2023-01-31T14:32:48;6.10;;;3.78;;
41923;SDS011;27613;48.116;11.656;2023-01-31T14:37:41;7.25;;;4.10;;
41923;SDS011;27613;48.116;11.656;2023-01-31T14:40:26;8.05;;;4.47;;
41923;SDS011;27613;48.116;11.656;2023-01-31T14:51:18;7.32;;;3.72;;
41923;SDS011;27613;48.116;11.656;2023-01-31T15:04:56;5.95;;;4.05;;
41923;SDS011;27613;48.116;11.656;2023-01-31T15:07:28;6.55;;;3.67;;
41923;SDS011;27613;48.116;11.656;2023-01-31T15:09:54;8.77;;;4.63;;
41923;SDS011;27613;48.116;11.656;2023-01-31T15:15:30;7.30;;;4.10;;
41923;SDS011;27613;48.116;11.656;2023-01-31T15:18:00;5.82;;;3.80;;
41923;SDS011;27613;48.116;11.656;2023-01-31T15:20:50;5.60;;;3.30;;
41923;SDS011;27613;48.116;11.656;2023-01-31T15:23:20;7.07;;;3.85;;
41923;SDS011;27613;48.116;11.656;2023-01-31T15:25:48;6.15;;;3.80;;
41923;SDS011;27613;48.116;11.656;2023-01-31T15:28:15;6.95;;;3.60;;
41923;SDS011;27613;48.116;11.656;2023-01-31T15:30:43;8.23;;;3.72;;
41923;SDS011;27613;48.116;11.656;2023-01-31T15:35:57;6.60;;;3.60;;
41923;SDS011;27613;48.116;11.656;2023-01-31T15:38:30;4.30;;;3.15;;
41923;SDS011;27613;48.116;11.656;2023-01-31T15:43:50;4.72;;;3.15;;
41923;SDS011;27613;48.116;11.656;2023-01-31T15:46:19;6.20;;;3.53;;
41923;SDS011;27613;48.116;11.656;2023-01-31T15:48:45;4.80;;;3.22;;
41923;SDS011;27613;48.116;11.656;2023-01-31T15:51:12;6.57;;;3.72;;
41923;SDS011;27613;48.116;11.656;2023-01-31T15:53:38;5.47;;;3.10;;
41923;SDS011;27613;48.116;11.656;2023-01-31T15:56:04;6.00;;;3.83;;
41923;SDS011;27613;48.116;11.656;2023-01-31T15:58:32;10.90;;;4.38;;
41923;SDS011;27613;48.116;11.656;2023-01-31T16:01:00;6.78;;;4.45;;
41923;SDS011;27613;48.116;11.656;2023-01-31T16:03:28;5.97;;;3.88;;
41923;SDS011;27613;48.116;11.656;2023-01-31T16:06:05;6.72;;;3.88;;
41923;SDS011;27613;48.116;11.656;2023-01-31T16:08:49;8.02;;;4.43;;
41923;SDS011;27613;48.116;11.656;2023-01-31T16:11:22;8.90;;;4.53;;
41923;SDS011;27613;48.116;11.656;2023-01-31T16:13:50;7.50;;;4.93;;
41923;SDS011;27613;48.116;11.656;2023-01-31T16:16:18;8.75;;;4.75;;
41923;SDS011;27613;48.116;11.656;2023-01-31T16:18:46;7.53;;;4.10;;
41923;SDS011;27613;48.116;11.656;2023-01-31T16:26:39;11.18;;;4.45;;
41923;SDS011;27613;48.116;11.656;2023-01-31T16:29:29;8.30;;;4.80;;
41923;SDS011;27613;48.116;11.656;2023-01-31T16:34:50;7.32;;;4.18;;
41923;SDS011;27613;48.116;11.656;2023-01-31T16:37:32;7.15;;;4.38;;
41923;SDS011;27613;48.116;11.656;2023-01-31T16:40:21;5.80;;;3.80;;
41923;SDS011;27613;48.116;11.656;2023-01-31T16:43:06;7.88;;;4.22;;
41923;SDS011;27613;48.116;11.656;2023-01-31T16:48:20;10.85;;;4.68;;
41923;SDS011;27613;48.116;11.656;2023-01-31T16:50:49;9.13;;;4.20;;
41923;SDS011;27613;48.116;11.656;2023-01-31T16:53:33;9.48;;;4.95;;
41923;SDS011;27613;48.116;11.656;2023-01-31T16:59:18;5.43;;;3.78;;
41923;SDS011;27613;48.116;11.656;2023-01-31T17:01:53;7.70;;;3.70;;
41923;SDS011;27613;48.116;11.656;2023-01-31T17:04:41;7.65;;;3.83;;